Time,TemperatureF,DewpointF,PressureIn,WindDirection,WindDirectionDegrees,WindSpeedMPH,WindSpeedGustMPH,Humidity,HourlyPrecipIn,Conditions,Clouds,dailyrainin,SoftwareType,DateUTC
2013-01-09 00:00:00,36.6,30.1,26.79,SSE,158,7.3,11.1,77,0.00,,,0.00,WUHU216HW,2013-01-09 05:00:00,
2013-01-09 00:05:00,36.5,29.9,26.79,SSE,158,5.5,9.8,77,0.00,,,0.00,WUHU216HW,2013-01-09 05:05:00,
2013-01-09 00:10:00,36.5,30.2,26.79,SSE,158,5.5,7.3,78,0.00,,,0.00,WUHU216HW,2013-01-09 05:10:00,
2013-01-09 00:15:00,36.6,30.2,26.79,SE,135,10.7,10.7,78,0.00,,,0.00,WUHU216HW,2013-01-09 05:15:00,
2013-01-09 00:20:00,36.5,30.2,26.79,SSE,158,10.0,10.7,78,0.00,,,0.00,WUHU216HW,2013-01-09 05:20:00,
2013-01-09 00:25:00,36.3,30.0,26.79,SSE,158,7.3,10.7,78,0.00,,,0.00,WUHU216HW,2013-01-09 05:25:00,
2013-01-09 00:30:00,36.3,30.0,26.79,SSE,158,9.6,10.0,78,0.00,,,0.00,WUHU216HW,2013-01-09 05:30:00,
2013-01-09 00:35:00,36.3,30.4,26.78,SE,135,5.5,9.6,79,0.00,,,0.00,WUHU216HW,2013-01-09 05:35:00,
2013-01-09 00:40:00,36.5,30.5,26.78,SSE,158,6.7,9.6,79,0.00,,,0.00,WUHU216HW,2013-01-09 05:40:00,
2013-01-09 00:45:00,36.5,30.5,26.78,SE,135,6.9,9.1,79,0.00,,,0.00,WUHU216HW,2013-01-09 05:45:00,
2013-01-09 00:50:00,36.3,30.4,26.78,SSE,158,6.4,7.8,79,0.00,,,0.00,WUHU216HW,2013-01-09 05:50:00,
2013-01-09 00:55:00,36.3,30.4,26.78,SSE,158,3.1,6.9,79,0.00,,,0.00,WUHU216HW,2013-01-09 05:55:00,
2013-01-09 01:00:00,36.1,30.2,26.78,SSE,158,4.6,7.3,79,0.00,,,0.00,WUHU216HW,2013-01-09 06:00:00,
2013-01-09 01:05:00,36.1,30.2,26.78,SSE,158,0.0,7.3,79,0.00,,,0.00,WUHU216HW,2013-01-09 06:05:00,
2013-01-09 01:10:00,36.1,30.5,26.78,SSE,158,7.6,7.6,80,0.00,,,0.00,WUHU216HW,2013-01-09 06:10:00,
2013-01-09 01:15:00,36.1,30.5,26.79,South,180,4.6,7.6,80,0.00,,,0.00,WUHU216HW,2013-01-09 06:15:00,
2013-01-09 01:20:00,36.3,30.7,26.79,South,180,0.0,4.6,80,0.00,,,0.00,WUHU216HW,2013-01-09 06:20:00,
2013-01-09 01:25:00,36.3,30.7,26.79,South,180,0.0,4.6,80,0.00,,,0.00,WUHU216HW,2013-01-09 06:25:00,
2013-01-09 01:30:00,36.3,30.7,26.79,South,180,0.0,2.6,80,0.00,,,0.00,WUHU216HW,2013-01-09 06:30:00,
2013-01-09 01:35:00,36.5,30.9,26.79,South,180,0.0,2.6,80,0.00,,,0.00,WUHU216HW,2013-01-09 06:35:00,
2013-01-09 01:40:00,36.6,31.3,26.79,SSE,158,3.5,3.5,81,0.00,,,0.00,WUHU216HW,2013-01-09 06:40:00,
2013-01-09 01:45:00,37.0,31.5,26.79,SSE,158,4.9,6.9,81,0.00,,,0.00,WUHU216HW,2013-01-09 06:45:00,
2013-01-09 01:50:00,37.0,31.7,26.80,SSE,158,3.3,6.9,81,0.00,,,0.00,WUHU216HW,2013-01-09 06:50:00,
2013-01-09 01:55:00,37.2,32.2,26.80,SE,135,0.0,4.9,82,0.00,,,0.00,WUHU216HW,2013-01-09 06:55:00,
2013-01-09 02:00:00,37.2,32.2,26.80,SSE,158,4.4,4.4,82,0.00,,,0.00,WUHU216HW,2013-01-09 07:00:00,
2013-01-09 02:05:00,37.2,32.2,26.79,SSE,158,7.3,7.6,82,0.00,,,0.00,WUHU216HW,2013-01-09 07:05:00,
2013-01-09 02:10:00,37.4,32.6,26.79,SSE,158,7.8,7.8,83,0.00,,,0.00,WUHU216HW,2013-01-09 07:10:00,
2013-01-09 02:15:00,37.5,32.8,26.79,SSE,158,3.1,7.8,83,0.00,,,0.00,WUHU216HW,2013-01-09 07:15:00,
2013-01-09 02:20:00,37.5,32.8,26.80,SSE,158,4.2,6.2,83,0.00,,,0.00,WUHU216HW,2013-01-09 07:20:00,
2013-01-09 02:25:00,37.5,32.8,26.80,SSE,158,6.4,6.4,83,0.00,,,0.00,WUHU216HW,2013-01-09 07:25:00,
2013-01-09 02:30:00,37.5,32.8,26.79,SSE,158,6.0,6.9,83,0.00,,,0.00,WUHU216HW,2013-01-09 07:30:00,
2013-01-09 02:35:00,37.5,32.8,26.79,SSE,158,5.8,6.9,83,0.00,,,0.00,WUHU216HW,2013-01-09 07:35:00,
2013-01-09 02:40:00,37.5,32.8,26.80,SSE,158,2.2,5.8,83,0.00,,,0.00,WUHU216HW,2013-01-09 07:40:00,
2013-01-09 02:45:00,37.5,33.1,26.80,SE,135,0.0,4.2,84,0.00,,,0.00,WUHU216HW,2013-01-09 07:45:00,
2013-01-09 02:50:00,37.5,33.1,26.80,SSE,158,4.4,4.4,84,0.00,,,0.00,WUHU216HW,2013-01-09 07:50:00,
2013-01-09 02:55:00,37.5,33.1,26.80,SSE,158,0.0,5.3,84,0.00,,,0.00,WUHU216HW,2013-01-09 07:55:00,
2013-01-09 03:00:00,37.5,33.1,26.80,SSE,158,0.0,5.3,84,0.00,,,0.00,WUHU216HW,2013-01-09 08:00:00,
2013-01-09 03:05:00,37.4,32.9,26.81,SSE,158,0.0,0.0,84,0.00,,,0.00,WUHU216HW,2013-01-09 08:05:00,
2013-01-09 03:10:00,37.2,32.5,26.81,SSE,158,0.0,0.0,83,0.00,,,0.00,WUHU216HW,2013-01-09 08:10:00,
2013-01-09 03:15:00,37.2,32.5,26.81,SSE,158,0.0,0.0,83,0.00,,,0.00,WUHU216HW,2013-01-09 08:15:00,
2013-01-09 03:20:00,37.2,32.7,26.81,SSE,158,0.0,0.0,84,0.00,,,0.00,WUHU216HW,2013-01-09 08:20:00,
2013-01-09 03:25:00,37.2,32.7,26.81,SSE,158,0.0,0.0,84,0.00,,,0.00,WUHU216HW,2013-01-09 08:25:00,
2013-01-09 03:30:00,37.2,32.5,26.80,SSE,158,0.0,0.0,83,0.00,,,0.00,WUHU216HW,2013-01-09 08:30:00,
2013-01-09 03:35:00,37.2,32.5,26.81,SSE,158,0.0,0.0,83,0.00,,,0.00,WUHU216HW,2013-01-09 08:35:00,
2013-01-09 03:41:00,37.5,32.8,26.80,SSE,158,0.0,0.0,83,0.00,,,0.00,WUHU216HW,2013-01-09 08:41:00,
2013-01-09 03:46:00,37.7,33.0,26.80,SSE,158,0.0,0.0,83,0.00,,,0.00,WUHU216HW,2013-01-09 08:46:00,
2013-01-09 03:51:00,37.7,33.0,26.80,SSE,158,0.0,0.0,83,0.00,,,0.00,WUHU216HW,2013-01-09 08:51:00,
2013-01-09 03:56:00,37.7,33.0,26.80,SSE,158,0.0,0.0,83,0.00,,,0.00,WUHU216HW,2013-01-09 08:56:00,
2013-01-09 04:01:00,37.7,33.0,26.80,SSE,158,0.0,0.0,83,0.00,,,0.00,WUHU216HW,2013-01-09 09:01:00,
2013-01-09 04:06:00,37.9,32.9,26.79,SSE,158,0.0,0.0,82,0.00,,,0.00,WUHU216HW,2013-01-09 09:06:00,
2013-01-09 04:11:00,37.7,32.7,26.80,SSE,158,0.0,3.1,82,0.00,,,0.00,WUHU216HW,2013-01-09 09:11:00,
2013-01-09 04:16:00,37.7,32.7,26.80,SSE,158,0.0,3.1,82,0.00,,,0.00,WUHU216HW,2013-01-09 09:16:00,
2013-01-09 04:21:00,37.9,32.9,26.80,SSE,158,0.0,0.0,82,0.00,,,0.00,WUHU216HW,2013-01-09 09:21:00,
2013-01-09 04:26:00,38.3,33.2,26.80,SSE,158,0.0,0.0,82,0.00,,,0.00,WUHU216HW,2013-01-09 09:26:00,
2013-01-09 04:31:00,38.3,33.2,26.80,SSE,158,0.0,0.0,82,0.00,,,0.00,WUHU216HW,2013-01-09 09:31:00,
2013-01-09 04:36:00,38.3,33.5,26.80,SSE,158,0.0,0.0,83,0.00,,,0.00,WUHU216HW,2013-01-09 09:36:00,
2013-01-09 04:41:00,38.1,33.4,26.80,South,180,4.4,5.1,83,0.00,,,0.00,WUHU216HW,2013-01-09 09:41:00,
2013-01-09 04:46:00,38.1,33.4,26.80,SSE,158,3.3,5.1,83,0.00,,,0.00,WUHU216HW,2013-01-09 09:46:00,
2013-01-09 04:51:00,38.1,33.7,26.80,SSE,158,4.4,4.9,83,0.00,,,0.00,WUHU216HW,2013-01-09 09:51:00,
2013-01-09 04:56:00,38.8,34.4,26.81,SSE,158,2.2,4.9,84,0.00,,,0.00,WUHU216HW,2013-01-09 09:56:00,
2013-01-09 05:01:00,38.8,34.4,26.80,SSE,158,1.1,4.2,84,0.00,,,0.00,WUHU216HW,2013-01-09 10:01:00,
2013-01-09 05:06:00,39.0,34.5,26.81,SSE,158,0.0,3.3,84,0.00,,,0.00,WUHU216HW,2013-01-09 10:06:00,
2013-01-09 05:11:00,39.0,34.5,26.80,SSE,158,0.0,0.0,84,0.00,,,0.00,WUHU216HW,2013-01-09 10:11:00,
2013-01-09 05:16:00,39.0,34.5,26.79,SSE,158,0.0,0.0,84,0.00,,,0.00,WUHU216HW,2013-01-09 10:16:00,
2013-01-09 05:21:00,39.0,34.5,26.79,SSE,158,0.0,0.0,84,0.00,,,0.00,WUHU216HW,2013-01-09 10:21:00,
2013-01-09 05:26:00,39.2,35.0,26.79,SSE,158,0.0,0.0,85,0.00,,,0.00,WUHU216HW,2013-01-09 10:26:00,
2013-01-09 05:31:00,39.3,35.2,26.79,SSE,158,0.0,0.0,85,0.00,,,0.00,WUHU216HW,2013-01-09 10:31:00,
2013-01-09 05:36:00,39.3,34.9,26.79,SSE,158,0.0,0.0,84,0.00,,,0.00,WUHU216HW,2013-01-09 10:36:00,
2013-01-09 05:41:00,39.5,35.0,26.79,West,270,2.0,3.8,84,0.00,,,0.00,WUHU216HW,2013-01-09 10:41:00,
2013-01-09 05:46:00,39.3,34.9,26.79,West,270,4.6,4.6,84,0.00,,,0.00,WUHU216HW,2013-01-09 10:46:00,
2013-01-09 05:51:00,39.5,35.0,26.79,West,270,4.4,4.6,84,0.00,,,0.00,WUHU216HW,2013-01-09 10:51:00,
2013-01-09 05:56:00,39.9,35.7,26.79,West,270,4.9,5.5,85,0.00,,,0.00,WUHU216HW,2013-01-09 10:56:00,
2013-01-09 06:01:00,40.1,35.9,26.79,West,270,3.8,5.5,85,0.00,,,0.00,WUHU216HW,2013-01-09 11:01:00,
2013-01-09 06:06:00,40.4,35.9,26.79,West,270,2.6,4.9,84,0.00,,,0.00,WUHU216HW,2013-01-09 11:06:00,
2013-01-09 06:11:00,40.8,36.2,26.79,West,270,3.1,5.1,84,0.00,,,0.00,WUHU216HW,2013-01-09 11:11:00,
2013-01-09 06:16:00,41.1,36.9,26.80,West,270,3.1,5.1,85,0.00,,,0.00,WUHU216HW,2013-01-09 11:16:00,
2013-01-09 06:21:00,41.5,37.0,26.79,WSW,248,6.4,6.4,84,0.00,,,0.00,WUHU216HW,2013-01-09 11:21:00,
2013-01-09 06:26:00,41.7,37.1,26.79,West,270,3.8,6.4,84,0.00,,,0.00,WUHU216HW,2013-01-09 11:26:00,
2013-01-09 06:31:00,42.0,37.5,26.80,WNW,293,4.4,4.4,84,0.00,,,0.00,WUHU216HW,2013-01-09 11:31:00,
2013-01-09 06:36:00,42.0,37.5,26.80,WNW,293,4.6,4.6,84,0.00,,,0.00,WUHU216HW,2013-01-09 11:36:00,
2013-01-09 06:41:00,42.0,37.2,26.81,WNW,293,4.0,7.3,83,0.00,,,0.00,WUHU216HW,2013-01-09 11:41:00,
2013-01-09 06:46:00,42.0,37.2,26.81,WNW,293,5.1,7.3,83,0.00,,,0.00,WUHU216HW,2013-01-09 11:46:00,
2013-01-09 06:51:00,42.4,37.5,26.81,West,270,4.4,6.4,83,0.00,,,0.00,WUHU216HW,2013-01-09 11:51:00,
2013-01-09 06:56:00,42.4,37.5,26.81,West,270,4.9,6.4,83,0.00,,,0.00,WUHU216HW,2013-01-09 11:56:00,
2013-01-09 07:01:00,42.4,37.5,26.81,WNW,293,6.4,7.3,83,0.00,,,0.00,WUHU216HW,2013-01-09 12:01:00,
2013-01-09 07:06:00,42.4,37.2,26.81,West,270,7.3,7.3,82,0.00,,,0.00,WUHU216HW,2013-01-09 12:06:00,
2013-01-09 07:11:00,42.4,37.2,26.81,West,270,8.7,8.7,82,0.00,,,0.00,WUHU216HW,2013-01-09 12:11:00,
2013-01-09 07:16:00,42.6,37.7,26.81,WNW,293,8.7,8.9,83,0.00,,,0.00,WUHU216HW,2013-01-09 12:16:00,
2013-01-09 07:21:00,42.6,37.7,26.81,West,270,7.6,10.0,83,0.00,,,0.00,WUHU216HW,2013-01-09 12:21:00,
2013-01-09 07:27:00,42.9,38.1,26.81,WNW,293,6.7,10.0,83,0.00,,,0.00,WUHU216HW,2013-01-09 12:27:00,
2013-01-09 07:32:00,42.9,38.1,26.82,NW,315,6.2,8.2,83,0.00,,,0.00,WUHU216HW,2013-01-09 12:32:00,
2013-01-09 07:37:00,43.3,38.4,26.82,WNW,293,4.9,8.2,83,0.00,,,0.00,WUHU216HW,2013-01-09 12:37:00,
2013-01-09 07:42:00,43.3,38.4,26.82,WSW,248,0.0,6.2,83,0.00,,,0.00,WUHU216HW,2013-01-09 12:42:00,
2013-01-09 07:47:00,43.7,38.5,26.82,WNW,293,3.3,4.9,82,0.00,,,0.00,WUHU216HW,2013-01-09 12:47:00,
2013-01-09 07:52:00,43.8,38.7,26.82,WNW,293,4.9,4.9,82,0.00,,,0.00,WUHU216HW,2013-01-09 12:52:00,
2013-01-09 07:57:00,43.8,38.7,26.83,NW,315,4.6,8.0,82,0.00,,,0.00,WUHU216HW,2013-01-09 12:57:00,
2013-01-09 08:02:00,44.0,38.9,26.83,WNW,293,4.6,8.0,82,0.00,,,0.00,WUHU216HW,2013-01-09 13:02:00,
2013-01-09 08:07:00,44.2,39.0,26.83,NW,315,5.8,5.8,82,0.00,,,0.00,WUHU216HW,2013-01-09 13:07:00,
2013-01-09 08:12:00,44.2,39.0,26.83,WNW,293,3.8,5.8,82,0.00,,,0.00,WUHU216HW,2013-01-09 13:12:00,
2013-01-09 08:17:00,44.4,39.2,26.83,NW,315,6.2,6.2,82,0.00,,,0.00,WUHU216HW,2013-01-09 13:17:00,
2013-01-09 08:22:00,44.4,38.9,26.83,WNW,293,4.9,6.2,81,0.00,,,0.00,WUHU216HW,2013-01-09 13:22:00,
2013-01-09 08:27:00,44.4,38.9,26.83,WNW,293,2.4,7.1,81,0.00,,,0.00,WUHU216HW,2013-01-09 13:27:00,
2013-01-09 08:32:00,44.4,38.9,26.83,NW,315,3.1,7.1,81,0.00,,,0.00,WUHU216HW,2013-01-09 13:32:00,
2013-01-09 08:37:00,44.4,38.9,26.83,WNW,293,6.9,7.3,81,0.00,,,0.00,WUHU216HW,2013-01-09 13:37:00,
2013-01-09 08:42:00,44.2,38.4,26.84,WNW,293,8.2,8.2,80,0.00,,,0.00,WUHU216HW,2013-01-09 13:42:00,
2013-01-09 08:47:00,44.2,38.4,26.84,WNW,293,7.8,8.2,80,0.00,,,0.00,WUHU216HW,2013-01-09 13:47:00,
2013-01-09 08:52:00,44.4,38.6,26.84,WNW,293,7.8,7.8,80,0.00,,,0.00,WUHU216HW,2013-01-09 13:52:00,
2013-01-09 08:57:00,44.4,38.6,26.84,NW,315,7.1,7.8,80,0.00,,,0.00,WUHU216HW,2013-01-09 13:57:00,
2013-01-09 09:02:00,44.4,38.6,26.84,WNW,293,6.7,7.8,80,0.00,,,0.00,WUHU216HW,2013-01-09 14:02:00,
2013-01-09 09:07:00,44.7,39.3,26.84,NW,315,5.3,6.9,81,0.00,,,0.00,WUHU216HW,2013-01-09 14:07:00,
2013-01-09 09:12:00,44.9,39.2,26.84,NW,315,4.4,6.9,80,0.00,,,0.00,WUHU216HW,2013-01-09 14:12:00,
2013-01-09 09:17:00,45.1,39.3,26.84,NW,315,3.5,5.3,80,0.00,,,0.00,WUHU216HW,2013-01-09 14:17:00,
2013-01-09 09:22:00,45.5,39.7,26.84,NNW,338,5.3,5.3,80,0.00,,,0.00,WUHU216HW,2013-01-09 14:22:00,
2013-01-09 09:27:00,45.6,39.5,26.84,NW,315,5.8,5.8,79,0.00,,,0.00,WUHU216HW,2013-01-09 14:27:00,
2013-01-09 09:32:00,45.6,39.5,26.85,WNW,293,4.6,6.9,79,0.00,,,0.00,WUHU216HW,2013-01-09 14:32:00,
2013-01-09 09:37:00,45.6,39.5,26.84,WNW,293,6.0,6.9,79,0.00,,,0.00,WUHU216HW,2013-01-09 14:37:00,
2013-01-09 09:42:00,46.0,39.9,26.85,WNW,293,6.0,6.2,79,0.00,,,0.00,WUHU216HW,2013-01-09 14:42:00,
2013-01-09 09:47:00,46.5,40.8,26.85,West,270,0.0,6.2,80,0.00,,,0.00,WUHU216HW,2013-01-09 14:47:00,
2013-01-09 09:52:00,47.1,41.2,26.85,WSW,248,0.0,4.6,80,0.00,,,0.00,WUHU216HW,2013-01-09 14:52:00,
2013-01-09 09:57:00,47.4,41.2,26.85,WNW,293,0.0,4.6,79,0.00,,,0.00,WUHU216HW,2013-01-09 14:57:00,
2013-01-09 10:02:00,48.0,41.7,26.85,West,270,2.6,2.6,79,0.00,,,0.00,WUHU216HW,2013-01-09 15:02:00,
2013-01-09 10:07:00,48.2,41.5,26.86,NW,315,5.3,5.3,78,0.00,,,0.00,WUHU216HW,2013-01-09 15:07:00,
2013-01-09 10:12:00,48.2,41.5,26.86,West,270,3.8,5.3,78,0.00,,,0.00,WUHU216HW,2013-01-09 15:12:00,
2013-01-09 10:17:00,48.5,41.5,26.85,WNW,293,4.0,5.5,77,0.00,,,0.00,WUHU216HW,2013-01-09 15:17:00,
2013-01-09 10:22:00,48.7,41.7,26.85,NW,315,7.6,7.6,77,0.00,,,0.00,WUHU216HW,2013-01-09 15:22:00,
2013-01-09 10:27:00,48.9,41.9,26.85,NW,315,8.5,8.5,77,0.00,,,0.00,WUHU216HW,2013-01-09 15:27:00,
2013-01-09 10:32:00,49.1,42.1,26.85,WNW,293,10.5,10.5,77,0.00,,,0.00,WUHU216HW,2013-01-09 15:32:00,
2013-01-09 10:37:00,49.2,41.9,26.85,WNW,293,9.6,10.5,76,0.00,,,0.00,WUHU216HW,2013-01-09 15:37:00,
2013-01-09 10:42:00,49.2,41.9,26.85,NW,315,8.2,10.5,76,0.00,,,0.00,WUHU216HW,2013-01-09 15:42:00,
2013-01-09 10:47:00,49.2,41.6,26.85,NW,315,7.1,9.6,75,0.00,,,0.00,WUHU216HW,2013-01-09 15:47:00,
2013-01-09 10:52:00,49.4,41.8,26.85,NW,315,6.2,9.6,75,0.00,,,0.00,WUHU216HW,2013-01-09 15:52:00,
2013-01-09 10:57:00,49.2,41.6,26.85,NW,315,5.1,8.9,75,0.00,,,0.00,WUHU216HW,2013-01-09 15:57:00,
2013-01-09 11:02:00,49.2,41.2,26.85,WNW,293,7.1,8.9,74,0.00,,,0.00,WUHU216HW,2013-01-09 16:02:00,
2013-01-09 11:07:00,49.6,41.6,26.84,NW,315,6.9,7.6,74,0.00,,,0.00,WUHU216HW,2013-01-09 16:07:00,
2013-01-09 11:12:00,49.8,41.8,26.85,West,270,7.3,7.6,74,0.00,,,0.00,WUHU216HW,2013-01-09 16:12:00,
2013-01-09 11:17:00,49.8,41.8,26.85,WNW,293,7.6,7.6,74,0.00,,,0.00,WUHU216HW,2013-01-09 16:17:00,
2013-01-09 11:22:00,50.1,42.1,26.85,West,270,10.2,10.2,74,0.00,,,0.00,WUHU216HW,2013-01-09 16:22:00,
2013-01-09 11:27:00,50.9,42.9,26.85,West,270,5.3,10.2,74,0.00,,,0.00,WUHU216HW,2013-01-09 16:27:00,
2013-01-09 11:32:00,51.2,43.6,26.85,WNW,293,3.1,10.2,75,0.00,,,0.00,WUHU216HW,2013-01-09 16:32:00,
2013-01-09 11:37:00,51.6,43.6,26.85,West,270,3.8,5.3,74,0.00,,,0.00,WUHU216HW,2013-01-09 16:37:00,
2013-01-09 11:43:00,51.8,43.8,26.85,NW,315,0.0,4.9,74,0.00,,,0.00,WUHU216HW,2013-01-09 16:43:00,
2013-01-09 11:48:00,52.1,44.1,26.84,WNW,293,4.2,4.2,74,0.00,,,0.00,WUHU216HW,2013-01-09 16:48:00,
2013-01-09 11:53:00,52.1,43.7,26.84,West,270,6.9,6.9,73,0.00,,,0.00,WUHU216HW,2013-01-09 16:53:00,
2013-01-09 11:58:00,52.1,43.7,26.84,West,270,5.1,8.5,73,0.00,,,0.00,WUHU216HW,2013-01-09 16:58:00,
2013-01-09 12:03:00,52.3,43.9,26.84,WNW,293,9.3,10.7,73,0.00,,,0.00,WUHU216HW,2013-01-09 17:03:00,
2013-01-09 12:08:00,52.5,44.1,26.84,NW,315,4.9,10.7,73,0.00,,,0.00,WUHU216HW,2013-01-09 17:08:00,
2013-01-09 12:13:00,52.8,44.4,26.84,NW,315,2.9,7.1,73,0.00,,,0.00,WUHU216HW,2013-01-09 17:13:00,
2013-01-09 12:18:00,52.8,44.4,26.83,NW,315,0.0,4.9,73,0.00,,,0.00,WUHU216HW,2013-01-09 17:18:00,
2013-01-09 12:23:00,52.8,44.4,26.83,WNW,293,5.1,5.1,73,0.00,,,0.00,WUHU216HW,2013-01-09 17:23:00,
2013-01-09 12:28:00,52.8,44.4,26.83,NW,315,3.8,6.0,73,0.00,,,0.00,WUHU216HW,2013-01-09 17:28:00,
2013-01-09 12:33:00,53.2,44.7,26.83,NNW,338,6.9,6.9,73,0.00,,,0.00,WUHU216HW,2013-01-09 17:33:00,
2013-01-09 12:38:00,53.2,44.7,26.83,WNW,293,5.5,6.9,73,0.00,,,0.00,WUHU216HW,2013-01-09 17:38:00,
2013-01-09 12:43:00,52.8,44.4,26.83,NW,315,4.0,6.4,73,0.00,,,0.00,WUHU216HW,2013-01-09 17:43:00,
2013-01-09 12:48:00,52.8,44.4,26.83,NW,315,1.5,5.5,73,0.00,,,0.00,WUHU216HW,2013-01-09 17:48:00,
2013-01-09 12:53:00,52.8,44.4,26.83,NW,315,1.7,5.3,73,0.00,,,0.00,WUHU216HW,2013-01-09 17:53:00,
2013-01-09 12:58:00,52.7,44.6,26.82,NW,315,4.9,5.1,74,0.00,,,0.00,WUHU216HW,2013-01-09 17:58:00,
2013-01-09 13:03:00,52.7,44.6,26.82,NW,315,4.2,5.1,74,0.00,,,0.00,WUHU216HW,2013-01-09 18:03:00,
2013-01-09 13:08:00,52.7,44.9,26.82,NW,315,5.3,6.2,75,0.00,,,0.00,WUHU216HW,2013-01-09 18:08:00,
2013-01-09 13:13:00,52.8,45.1,26.82,NW,315,6.4,8.0,75,0.00,,,0.00,WUHU216HW,2013-01-09 18:13:00,
2013-01-09 13:18:00,52.8,45.5,26.82,NNW,338,3.3,8.0,76,0.00,,,0.00,WUHU216HW,2013-01-09 18:18:00,
2013-01-09 13:23:00,52.8,45.5,26.82,WNW,293,6.0,7.3,76,0.00,,,0.00,WUHU216HW,2013-01-09 18:23:00,
2013-01-09 13:28:00,52.8,45.5,26.82,NW,315,6.9,6.9,76,0.00,,,0.00,WUHU216HW,2013-01-09 18:28:00,
2013-01-09 13:33:00,53.2,45.8,26.82,NW,315,6.9,6.9,76,0.00,,,0.00,WUHU216HW,2013-01-09 18:33:00,
2013-01-09 13:38:00,53.2,45.8,26.82,NW,315,7.6,11.6,76,0.00,,,0.00,WUHU216HW,2013-01-09 18:38:00,
2013-01-09 13:43:00,53.2,46.2,26.82,WNW,293,6.9,11.6,77,0.00,,,0.00,WUHU216HW,2013-01-09 18:43:00,
2013-01-09 13:48:00,53.4,46.4,26.82,WNW,293,7.8,8.5,77,0.00,,,0.00,WUHU216HW,2013-01-09 18:48:00,
2013-01-09 13:53:00,53.6,46.5,26.82,West,270,9.6,14.7,77,0.00,,,0.00,WUHU216HW,2013-01-09 18:53:00,
2013-01-09 13:58:00,53.7,46.7,26.82,NW,315,7.6,14.7,77,0.00,,,0.00,WUHU216HW,2013-01-09 18:58:00,
2013-01-09 14:03:00,53.7,46.3,26.82,NW,315,6.9,9.6,76,0.00,,,0.00,WUHU216HW,2013-01-09 19:03:00,
2013-01-09 14:09:00,53.9,46.5,26.82,WNW,293,5.8,7.6,76,0.00,,,0.00,WUHU216HW,2013-01-09 19:09:00,
2013-01-09 14:14:00,54.1,46.7,26.82,WNW,293,9.8,9.8,76,0.00,,,0.00,WUHU216HW,2013-01-09 19:14:00,
2013-01-09 14:19:00,54.1,46.7,26.82,WNW,293,9.1,11.1,76,0.00,,,0.00,WUHU216HW,2013-01-09 19:19:00,
2013-01-09 14:24:00,54.1,46.7,26.82,WNW,293,11.1,12.9,76,0.00,,,0.00,WUHU216HW,2013-01-09 19:24:00,
2013-01-09 14:29:00,54.3,46.8,26.82,NW,315,9.1,13.6,76,0.00,,,0.00,WUHU216HW,2013-01-09 19:29:00,
2013-01-09 14:34:00,54.3,46.8,26.82,West,270,7.8,13.6,76,0.00,,,0.00,WUHU216HW,2013-01-09 19:34:00,
2013-01-09 14:39:00,54.3,46.8,26.82,West,270,6.0,8.5,76,0.00,,,0.00,WUHU216HW,2013-01-09 19:39:00,
2013-01-09 14:44:00,54.3,46.8,26.82,West,270,6.9,10.9,76,0.00,,,0.00,WUHU216HW,2013-01-09 19:44:00,
2013-01-09 14:49:00,54.3,46.8,26.82,WNW,293,13.1,13.1,76,0.00,,,0.00,WUHU216HW,2013-01-09 19:49:00,
2013-01-09 14:54:00,54.1,47.0,26.82,West,270,10.5,13.1,77,0.00,,,0.00,WUHU216HW,2013-01-09 19:54:00,
2013-01-09 14:59:00,54.1,46.7,26.83,WNW,293,14.9,14.9,76,0.00,,,0.00,WUHU216HW,2013-01-09 19:59:00,
2013-01-09 15:04:00,53.9,46.9,26.83,NW,315,7.6,14.9,77,0.00,,,0.00,WUHU216HW,2013-01-09 20:04:00,
2013-01-09 15:09:00,53.7,46.7,26.83,NW,315,10.0,15.2,77,0.00,,,0.00,WUHU216HW,2013-01-09 20:09:00,
2013-01-09 15:14:00,53.4,46.7,26.83,NNW,338,11.1,15.2,78,0.00,,,0.00,WUHU216HW,2013-01-09 20:14:00,
2013-01-09 15:19:00,53.2,46.5,26.84,NNW,338,11.1,14.5,78,0.00,,,0.00,WUHU216HW,2013-01-09 20:19:00,
2013-01-09 15:24:00,52.8,46.5,26.84,WNW,293,12.7,14.5,79,0.00,,,0.00,WUHU216HW,2013-01-09 20:24:00,
2013-01-09 15:29:00,52.7,46.7,26.84,NNW,338,11.4,12.7,80,0.00,,,0.00,WUHU216HW,2013-01-09 20:29:00,
2013-01-09 15:34:00,52.1,46.2,26.84,NW,315,12.3,12.7,80,0.00,,,0.00,WUHU216HW,2013-01-09 20:34:00,
2013-01-09 15:39:00,51.6,45.9,26.84,NW,315,21.0,21.0,81,0.00,,,0.00,WUHU216HW,2013-01-09 20:39:00,
2013-01-09 15:44:00,51.0,45.4,26.84,NNW,338,12.3,21.0,81,0.00,,,0.00,WUHU216HW,2013-01-09 20:44:00,
2013-01-09 15:49:00,50.5,45.2,26.85,NW,315,9.1,21.0,82,0.00,,,0.00,WUHU216HW,2013-01-09 20:49:00,
2013-01-09 15:54:00,50.1,44.8,26.85,NW,315,9.1,15.6,82,0.00,,,0.00,WUHU216HW,2013-01-09 20:54:00,
2013-01-09 15:59:00,49.8,44.4,26.85,WNW,293,8.7,9.3,82,0.00,,,0.00,WUHU216HW,2013-01-09 20:59:00,
2013-01-09 16:04:00,49.6,44.3,26.85,NNE,23,3.8,9.1,82,0.00,,,0.00,WUHU216HW,2013-01-09 21:04:00,
2013-01-09 16:09:00,49.6,44.3,26.85,WNW,293,6.2,8.9,82,0.00,,,0.00,WUHU216HW,2013-01-09 21:09:00,
2013-01-09 16:14:00,49.6,44.6,26.85,WNW,293,6.9,6.9,83,0.00,,,0.00,WUHU216HW,2013-01-09 21:14:00,
2013-01-09 16:19:00,49.2,44.2,26.85,NW,315,6.9,6.9,83,0.00,,,0.00,WUHU216HW,2013-01-09 21:19:00,
2013-01-09 16:24:00,49.2,44.2,26.85,NW,315,2.4,6.9,83,0.00,,,0.00,WUHU216HW,2013-01-09 21:24:00,
2013-01-09 16:29:00,49.1,44.0,26.85,NNW,338,6.0,7.8,83,0.00,,,0.00,WUHU216HW,2013-01-09 21:29:00,
2013-01-09 16:34:00,48.9,43.9,26.85,NW,315,4.6,7.8,83,0.00,,,0.00,WUHU216HW,2013-01-09 21:34:00,
2013-01-09 16:39:00,49.1,44.4,26.85,WNW,293,0.0,4.6,84,0.00,,,0.00,WUHU216HW,2013-01-09 21:39:00,
2013-01-09 16:44:00,49.1,44.4,26.84,WNW,293,0.0,4.6,84,0.00,,,0.00,WUHU216HW,2013-01-09 21:44:00,
2013-01-09 16:49:00,49.1,44.4,26.83,WSW,248,3.8,3.8,84,0.00,,,0.00,WUHU216HW,2013-01-09 21:49:00,
2013-01-09 16:54:00,49.1,44.4,26.82,SSE,158,6.7,7.6,84,0.00,,,0.00,WUHU216HW,2013-01-09 21:54:00,
2013-01-09 16:59:00,49.2,44.5,26.83,SSE,158,5.8,7.6,84,0.00,,,0.00,WUHU216HW,2013-01-09 21:59:00,
2013-01-09 17:04:00,49.6,45.2,26.83,NNW,338,8.5,8.5,85,0.00,,,0.00,WUHU216HW,2013-01-09 22:04:00,
2013-01-09 17:09:00,49.6,45.2,26.84,North,0,11.4,11.4,85,0.00,,,0.00,WUHU216HW,2013-01-09 22:09:00,
2013-01-09 17:14:00,49.2,44.9,26.84,NNW,338,9.3,11.4,85,0.00,,,0.00,WUHU216HW,2013-01-09 22:14:00,
2013-01-09 17:19:00,49.1,44.7,26.84,NNW,338,12.0,12.0,85,0.00,,,0.00,WUHU216HW,2013-01-09 22:19:00,
2013-01-09 17:25:00,49.1,44.7,26.84,NW,315,7.1,12.0,85,0.00,,,0.00,WUHU216HW,2013-01-09 22:25:00,
2013-01-09 17:30:00,49.1,44.7,26.84,WNW,293,4.2,12.0,85,0.00,,,0.00,WUHU216HW,2013-01-09 22:30:00,
2013-01-09 17:35:00,49.1,45.0,26.84,NW,315,7.8,7.8,86,0.00,,,0.00,WUHU216HW,2013-01-09 22:35:00,
2013-01-09 17:40:00,49.1,45.0,26.84,WNW,293,6.9,7.8,86,0.00,,,0.00,WUHU216HW,2013-01-09 22:40:00,
2013-01-09 17:45:00,49.2,45.2,26.84,WNW,293,9.3,10.9,86,0.00,,,0.00,WUHU216HW,2013-01-09 22:45:00,
2013-01-09 17:50:00,49.2,45.2,26.84,WNW,293,11.4,11.4,86,0.00,,,0.00,WUHU216HW,2013-01-09 22:50:00,
2013-01-09 17:55:00,49.1,45.2,26.84,West,270,7.6,11.6,86,0.00,,,0.00,WUHU216HW,2013-01-09 22:55:00,
2013-01-09 18:00:00,49.1,45.0,26.84,WNW,293,9.6,11.6,86,0.00,,,0.00,WUHU216HW,2013-01-09 23:00:00,
2013-01-09 18:05:00,49.1,45.0,26.84,WNW,293,7.8,9.8,86,0.00,,,0.00,WUHU216HW,2013-01-09 23:05:00,
2013-01-09 18:10:00,49.1,45.0,26.83,WNW,293,8.7,9.6,86,0.00,,,0.00,WUHU216HW,2013-01-09 23:10:00,
2013-01-09 18:15:00,49.1,45.3,26.84,NW,315,8.9,9.6,87,0.00,,,0.00,WUHU216HW,2013-01-09 23:15:00,
2013-01-09 18:20:00,49.2,45.5,26.84,West,270,12.0,12.0,87,0.00,,,0.00,WUHU216HW,2013-01-09 23:20:00,
2013-01-09 18:25:00,49.2,45.5,26.84,WNW,293,11.8,12.9,87,0.00,,,0.00,WUHU216HW,2013-01-09 23:25:00,
2013-01-09 18:30:00,49.2,45.5,26.84,NW,315,8.0,12.9,87,0.00,,,0.00,WUHU216HW,2013-01-09 23:30:00,
2013-01-09 18:35:00,49.2,45.5,26.84,WNW,293,10.0,10.0,87,0.00,,,0.00,WUHU216HW,2013-01-09 23:35:00,
2013-01-09 18:40:00,49.2,45.5,26.84,NW,315,7.8,10.0,87,0.00,,,0.00,WUHU216HW,2013-01-09 23:40:00,
2013-01-09 18:45:00,49.2,45.5,26.84,NW,315,8.0,8.5,87,0.00,,,0.00,WUHU216HW,2013-01-09 23:45:00,
2013-01-09 18:50:00,49.2,45.8,26.84,North,0,11.8,12.5,88,0.00,,,0.00,WUHU216HW,2013-01-09 23:50:00,
2013-01-09 18:55:00,49.2,45.8,26.85,NW,315,13.8,13.8,88,0.00,,,0.00,WUHU216HW,2013-01-09 23:55:00,
2013-01-09 19:00:00,49.2,45.8,26.84,NW,315,7.3,13.8,88,0.00,,,0.00,WUHU216HW,2013-01-10 00:00:00,
2013-01-09 19:05:00,49.1,45.6,26.85,NNW,338,9.8,11.8,88,0.00,,,0.00,WUHU216HW,2013-01-10 00:05:00,
2013-01-09 19:11:00,49.1,45.6,26.85,NW,315,7.8,9.8,88,0.00,,,0.00,WUHU216HW,2013-01-10 00:11:00,
2013-01-09 19:16:00,49.1,45.6,26.85,WNW,293,12.9,12.9,88,0.00,,,0.00,WUHU216HW,2013-01-10 00:16:00,
2013-01-09 19:21:00,49.2,46.1,26.85,WNW,293,10.0,12.9,89,0.00,,,0.00,WUHU216HW,2013-01-10 00:21:00,
2013-01-09 19:26:00,49.2,46.1,26.86,NW,315,11.8,12.5,89,0.00,,,0.00,WUHU216HW,2013-01-10 00:26:00,
2013-01-09 19:31:00,49.2,46.1,26.85,WNW,293,15.2,15.2,89,0.00,,,0.00,WUHU216HW,2013-01-10 00:31:00,
2013-01-09 19:36:00,49.2,46.1,26.85,NNW,338,12.9,15.2,89,0.00,,,0.00,WUHU216HW,2013-01-10 00:36:00,
2013-01-09 19:41:00,49.2,46.1,26.85,WNW,293,10.7,13.1,89,0.00,,,0.00,WUHU216HW,2013-01-10 00:41:00,
2013-01-09 19:46:00,49.2,46.1,26.85,NW,315,11.1,18.3,89,0.00,,,0.00,WUHU216HW,2013-01-10 00:46:00,
2013-01-09 19:51:00,49.2,46.1,26.86,NW,315,10.7,18.3,89,0.00,,,0.00,WUHU216HW,2013-01-10 00:51:00,
2013-01-09 19:56:00,49.2,46.1,26.86,West,270,12.5,14.3,89,0.00,,,0.00,WUHU216HW,2013-01-10 00:56:00,
2013-01-09 20:01:00,49.2,46.1,26.86,NW,315,17.4,17.4,89,0.00,,,0.00,WUHU216HW,2013-01-10 01:01:00,
2013-01-09 20:06:00,49.2,46.4,26.86,NW,315,14.7,17.4,90,0.00,,,0.00,WUHU216HW,2013-01-10 01:06:00,
2013-01-09 20:11:00,49.2,46.4,26.86,NW,315,13.8,14.7,90,0.00,,,0.00,WUHU216HW,2013-01-10 01:11:00,
2013-01-09 20:16:00,49.2,46.4,26.87,WNW,293,10.2,14.9,90,0.00,,,0.00,WUHU216HW,2013-01-10 01:16:00,
2013-01-09 20:21:00,49.4,46.6,26.87,NW,315,7.8,17.6,90,0.00,,,0.00,WUHU216HW,2013-01-10 01:21:00,
2013-01-09 20:26:00,49.6,46.7,26.87,NW,315,10.2,17.6,90,0.00,,,0.00,WUHU216HW,2013-01-10 01:26:00,
2013-01-09 20:31:00,49.6,46.7,26.87,NW,315,14.3,14.3,90,0.00,,,0.00,WUHU216HW,2013-01-10 01:31:00,
2013-01-09 20:36:00,49.6,46.7,26.87,NW,315,14.3,14.3,90,0.00,,,0.00,WUHU216HW,2013-01-10 01:36:00,
2013-01-09 20:41:00,49.6,46.7,26.87,WNW,293,17.2,17.2,90,0.00,,,0.00,WUHU216HW,2013-01-10 01:41:00,
2013-01-09 20:46:00,49.6,46.7,26.88,WNW,293,9.8,17.2,90,0.00,,,0.00,WUHU216HW,2013-01-10 01:46:00,
2013-01-09 20:51:00,49.4,46.6,26.88,WNW,293,12.7,17.2,90,0.00,,,0.00,WUHU216HW,2013-01-10 01:51:00,
2013-01-09 20:56:00,49.4,46.6,26.88,NW,315,12.0,12.7,90,0.00,,,0.00,WUHU216HW,2013-01-10 01:56:00,
2013-01-09 21:01:00,49.4,46.6,26.88,NW,315,13.1,13.1,90,0.00,,,0.00,WUHU216HW,2013-01-10 02:01:00,
2013-01-09 21:06:00,49.2,46.4,26.88,WNW,293,11.1,13.1,90,0.00,,,0.00,WUHU216HW,2013-01-10 02:06:00,
2013-01-09 21:11:00,49.2,46.4,26.88,NW,315,14.0,14.0,90,0.00,,,0.00,WUHU216HW,2013-01-10 02:11:00,
2013-01-09 21:16:00,49.2,46.4,26.87,NW,315,18.1,18.1,90,0.00,,,0.00,WUHU216HW,2013-01-10 02:16:00,
2013-01-09 21:21:00,49.4,46.6,26.87,WNW,293,9.6,18.1,90,0.00,,,0.00,WUHU216HW,2013-01-10 02:21:00,
2013-01-09 21:26:00,49.6,46.7,26.87,NW,315,9.6,11.6,90,0.00,,,0.00,WUHU216HW,2013-01-10 02:26:00,
2013-01-09 21:31:00,49.6,46.7,26.87,NW,315,11.8,13.1,90,0.00,,,0.00,WUHU216HW,2013-01-10 02:31:00,
2013-01-09 21:36:00,49.6,46.7,26.88,WNW,293,10.7,13.4,90,0.00,,,0.00,WUHU216HW,2013-01-10 02:36:00,
2013-01-09 21:41:00,49.6,46.7,26.87,WNW,293,15.6,15.6,90,0.00,,,0.00,WUHU216HW,2013-01-10 02:41:00,
2013-01-09 21:46:00,49.6,46.7,26.87,WNW,293,13.8,15.6,90,0.00,,,0.00,WUHU216HW,2013-01-10 02:46:00,
2013-01-09 21:51:00,49.6,46.7,26.88,NW,315,7.6,13.8,90,0.00,,,0.00,WUHU216HW,2013-01-10 02:51:00,
2013-01-09 21:56:00,49.6,46.7,26.88,NW,315,7.1,13.4,90,0.00,,,0.00,WUHU216HW,2013-01-10 02:56:00,
2013-01-09 22:01:00,49.8,46.9,26.88,NW,315,7.3,12.0,90,0.00,,,0.00,WUHU216HW,2013-01-10 03:01:00,
2013-01-09 22:06:00,49.8,46.9,26.87,WNW,293,10.0,11.8,90,0.00,,,0.00,WUHU216HW,2013-01-10 03:06:00,
2013-01-09 22:11:00,49.6,46.7,26.88,NW,315,11.1,11.1,90,0.00,,,0.00,WUHU216HW,2013-01-10 03:11:00,
2013-01-09 22:17:00,49.8,46.9,26.88,NW,315,11.4,12.7,90,0.00,,,0.00,WUHU216HW,2013-01-10 03:17:00,
2013-01-09 22:22:00,49.6,46.7,26.87,NW,315,10.7,12.7,90,0.00,,,0.00,WUHU216HW,2013-01-10 03:22:00,
2013-01-09 22:27:00,49.6,46.7,26.88,NNW,338,10.5,11.4,90,0.00,,,0.00,WUHU216HW,2013-01-10 03:27:00,
2013-01-09 22:32:00,49.6,46.7,26.87,NW,315,15.6,15.6,90,0.00,,,0.00,WUHU216HW,2013-01-10 03:32:00,
2013-01-09 22:37:00,49.6,46.7,26.88,NW,315,8.9,15.6,90,0.00,,,0.00,WUHU216HW,2013-01-10 03:37:00,
2013-01-09 22:42:00,49.6,46.7,26.88,WNW,293,11.6,15.6,90,0.00,,,0.00,WUHU216HW,2013-01-10 03:42:00,
2013-01-09 22:47:00,49.6,46.7,26.88,NW,315,12.9,15.2,90,0.00,,,0.00,WUHU216HW,2013-01-10 03:47:00,
2013-01-09 22:52:00,49.6,46.7,26.88,NW,315,11.6,15.2,90,0.00,,,0.00,WUHU216HW,2013-01-10 03:52:00,
2013-01-09 22:57:00,49.6,46.7,26.88,NW,315,12.5,14.7,90,0.00,,,0.00,WUHU216HW,2013-01-10 03:57:00,
2013-01-09 23:02:00,49.6,46.7,26.88,NW,315,10.0,14.0,90,0.00,,,0.00,WUHU216HW,2013-01-10 04:02:00,
2013-01-09 23:07:00,49.6,46.7,26.88,NNW,338,11.6,16.1,90,0.00,,,0.00,WUHU216HW,2013-01-10 04:07:00,
2013-01-09 23:12:00,49.6,46.7,26.88,WNW,293,9.8,16.1,90,0.00,,,0.00,WUHU216HW,2013-01-10 04:12:00,
2013-01-09 23:17:00,49.4,46.6,26.88,NW,315,10.5,11.8,90,0.00,,,0.00,WUHU216HW,2013-01-10 04:17:00,
2013-01-09 23:22:00,49.2,46.4,26.88,WNW,293,12.7,12.7,90,0.00,,,0.00,WUHU216HW,2013-01-10 04:22:00,
2013-01-09 23:27:00,49.2,46.4,26.89,WNW,293,10.7,12.7,90,0.00,,,0.00,WUHU216HW,2013-01-10 04:27:00,
2013-01-09 23:32:00,49.2,46.4,26.89,West,270,11.1,12.7,90,0.00,,,0.00,WUHU216HW,2013-01-10 04:32:00,
2013-01-09 23:37:00,49.1,46.3,26.89,NW,315,11.6,14.5,90,0.00,,,0.00,WUHU216HW,2013-01-10 04:37:00,
2013-01-09 23:42:00,49.1,46.3,26.89,NNW,338,10.0,14.5,90,0.00,,,0.00,WUHU216HW,2013-01-10 04:42:00,
2013-01-09 23:47:00,49.1,46.3,26.90,NW,315,10.0,11.6,90,0.00,,,0.00,WUHU216HW,2013-01-10 04:47:00,
2013-01-09 23:52:00,48.9,46.1,26.89,NW,315,10.5,10.5,90,0.00,,,0.00,WUHU216HW,2013-01-10 04:52:00,
2013-01-09 23:57:00,48.9,46.1,26.89,NW,315,8.2,12.9,90,0.00,,,0.00,WUHU216HW,2013-01-10 04:57:00,